Time;durP1;ratioP1;P1;durP2;ratioP2;P2;SDS_P1;SDS_P2;PMS_P1;PMS_P2;Temp;Humidity;BMP_temperature;BMP_pressure;BME280_temperature;BME280_humidity;BME280_pressure;Samples;Min_cycle;Max_cycle;Signal;HPM_P1;HPM_P2
2022/09/23 00:00:35;;;;;;;5.07;4.40;;;10.80;99.90;;;;;;5096845;28;20546;-60
2022/09/23 00:03:04;;;;;;;5.17;4.77;;;10.50;99.90;;;;;;5096959;28;20550;-61
2022/09/23 00:05:32;;;;;;;5.40;4.60;;;10.40;99.90;;;;;;5096401;28;20934;-60
2022/09/23 00:07:59;;;;;;;6.30;4.77;;;10.50;99.90;;;;;;5096768;28;20443;-60
2022/09/23 00:10:30;;;;;;;4.63;4.23;;;10.30;99.90;;;;;;5096474;28;20985;-60
2022/09/23 00:12:58;;;;;;;5.20;4.70;;;10.30;99.90;;;;;;5096485;28;20491;-60
2022/09/23 00:15:27;;;;;;;5.80;5.30;;;10.30;99.90;;;;;;5096628;28;20792;-60
2022/09/23 00:17:54;;;;;;;4.83;4.43;;;10.40;99.90;;;;;;5096874;28;20474;-60
2022/09/23 00:20:23;;;;;;;5.43;4.97;;;10.30;99.90;;;;;;5096124;28;20447;-61
2022/09/23 00:22:50;;;;;;;5.23;4.80;;;10.20;99.90;;;;;;5096314;28;20498;-60
2022/09/23 00:25:18;;;;;;;5.37;4.60;;;10.10;99.90;;;;;;5096521;28;20469;-60
2022/09/23 00:27:45;;;;;;;6.00;4.70;;;10.10;99.90;;;;;;5096573;28;20432;-61
2022/09/23 00:30:12;;;;;;;5.50;5.00;;;10.20;99.90;;;;;;5096227;28;20440;-60
2022/09/23 00:32:39;;;;;;;5.43;4.73;;;10.20;99.90;;;;;;5095964;28;20448;-60
2022/09/23 00:35:08;;;;;;;5.20;4.70;;;10.30;99.90;;;;;;5096214;28;20501;-61
2022/09/23 00:37:36;;;;;;;5.60;4.73;;;10.20;99.90;;;;;;5094987;28;20861;-61
2022/09/23 00:40:04;;;;;;;5.53;5.03;;;10.20;99.90;;;;;;5096069;28;20443;-61
2022/09/23 00:42:31;;;;;;;5.27;4.73;;;10.30;99.90;;;;;;5095947;28;20554;-60
2022/09/23 00:44:59;;;;;;;5.57;5.03;;;10.20;99.90;;;;;;5096026;28;20511;-60
2022/09/23 00:47:35;;;;;;;8.90;5.53;;;10.00;99.90;;;;;;5095594;28;20479;-60
2022/09/23 00:50:07;;;;;;;5.07;4.67;;;10.00;99.90;;;;;;5095754;28;20427;-60
2022/09/23 00:52:36;;;;;;;4.73;4.33;;;10.00;99.90;;;;;;5095975;28;20467;-61
2022/09/23 00:55:07;;;;;;;5.03;4.50;;;9.90;99.90;;;;;;5095694;28;20479;-61
2022/09/23 00:57:36;;;;;;;6.87;5.00;;;9.90;99.90;;;;;;5095430;28;20907;-60
2022/09/23 01:00:05;;;;;;;5.13;4.63;;;9.90;99.90;;;;;;5095743;28;20464;-60
2022/09/23 01:02:32;;;;;;;9.50;5.40;;;9.80;99.90;;;;;;5095558;28;20551;-60
2022/09/23 01:05:01;;;;;;;5.53;5.10;;;9.90;99.90;;;;;;5095602;28;20443;-60
2022/09/23 01:07:28;;;;;;;6.27;5.67;;;10.00;99.90;;;;;;5095611;28;20444;-60
2022/09/23 01:09:59;;;;;;;5.40;4.90;;;9.90;99.90;;;;;;5095649;28;20808;-60
2022/09/23 01:12:48;;;;;;;5.33;4.83;;;9.80;99.90;;;;;;5094991;28;20468;-60
2022/09/23 01:15:19;;;;;;;5.60;5.00;;;9.80;99.90;;;;;;5095291;28;20479;-60
2022/09/23 01:17:54;;;;;;;9.20;5.37;;;9.90;99.90;;;;;;5095428;28;20787;-60
2022/09/23 01:20:58;;;;;;;9.30;5.93;;;9.90;99.90;;;;;;5095043;28;20891;-60
2022/09/23 01:24:15;;;;;;;6.30;4.90;;;9.90;99.90;;;;;;5013218;28;20497;-60
2022/09/23 01:26:56;;;;;;;6.67;5.63;;;9.80;99.90;;;;;;4905024;29;20928;-60
2022/09/23 01:30:02;;;;;;;7.83;5.60;;;9.80;99.90;;;;;;5074338;28;20504;-60
2022/09/23 01:32:41;;;;;;;5.73;5.23;;;9.70;99.90;;;;;;5088158;28;20482;-60
2022/09/23 01:35:21;;;;;;;6.50;4.90;;;9.60;99.90;;;;;;5094687;28;20965;-60
2022/09/23 01:37:56;;;;;;;7.70;5.57;;;9.60;99.90;;;;;;5095061;28;20497;-60
2022/09/23 01:40:31;;;;;;;9.30;6.33;;;9.60;99.90;;;;;;5094810;28;20925;-61
2022/09/23 01:43:04;;;;;;;6.30;5.70;;;9.70;99.90;;;;;;5094770;28;20987;-60
2022/09/23 01:45:36;;;;;;;6.00;5.40;;;9.60;99.90;;;;;;5094891;28;20427;-60
2022/09/23 01:48:12;;;;;;;6.50;5.73;;;9.50;99.90;;;;;;5094380;28;20483;-60
2022/09/23 01:50:58;;;;;;;6.60;6.10;;;9.50;99.90;;;;;;5094475;28;20512;-60
2022/09/23 01:53:39;;;;;;;6.00;5.40;;;9.60;99.90;;;;;;5094382;28;20452;-60
2022/09/23 01:56:13;;;;;;;6.93;6.33;;;9.60;99.90;;;;;;5094351;28;20427;-60
2022/09/23 01:58:45;;;;;;;10.63;5.23;;;9.40;99.90;;;;;;5094712;28;20423;-60
2022/09/23 02:01:16;;;;;;;9.20;5.93;;;9.50;99.90;;;;;;5094202;28;20546;-60
2022/09/23 02:03:49;;;;;;;6.77;5.70;;;9.30;99.90;;;;;;5094512;28;20431;-60
2022/09/23 02:06:21;;;;;;;7.07;6.47;;;9.30;99.90;;;;;;5094141;28;20526;-60
2022/09/23 02:08:53;;;;;;;6.00;5.10;;;9.50;99.90;;;;;;5094549;28;20489;-60
2022/09/23 02:11:20;;;;;;;6.70;5.90;;;9.60;99.90;;;;;;5094387;28;20466;-59
2022/09/23 02:13:52;;;;;;;35.00;6.97;;;9.50;99.90;;;;;;5094080;28;20485;-59
2022/09/23 02:16:26;;;;;;;8.30;5.80;;;9.40;99.90;;;;;;5094469;28;20427;-59
2022/09/23 02:18:58;;;;;;;5.70;5.30;;;9.30;99.90;;;;;;5094075;28;20918;-60
2022/09/23 02:21:32;;;;;;;6.30;5.70;;;9.20;99.90;;;;;;5094237;28;20477;-60
2022/09/23 02:24:07;;;;;;;7.87;6.90;;;9.20;99.90;;;;;;5094190;28;20770;-60
2022/09/23 02:26:40;;;;;;;6.50;5.90;;;9.20;99.90;;;;;;5094052;28;20427;-60
2022/09/23 02:29:15;;;;;;;5.90;5.40;;;9.20;99.90;;;;;;5094052;28;20795;-60
2022/09/23 02:31:48;;;;;;;6.47;5.87;;;9.30;99.90;;;;;;5093834;28;20463;-60
2022/09/23 02:34:30;;;;;;;11.63;5.80;;;9.40;99.90;;;;;;5093710;28;20463;-60
2022/09/23 02:37:11;;;;;;;7.93;5.70;;;9.40;99.90;;;;;;5093922;28;20460;-60
2022/09/23 02:39:49;;;;;;;6.67;5.33;;;9.40;99.90;;;;;;5093867;28;20514;-60
2022/09/23 02:42:21;;;;;;;6.80;6.10;;;9.50;99.90;;;;;;5093430;28;20447;-60
2022/09/23 02:44:48;;;;;;;6.33;5.83;;;9.50;99.90;;;;;;5093817;28;20432;-60
2022/09/23 02:47:17;;;;;;;6.47;5.80;;;9.30;99.90;;;;;;5093429;28;20476;-60
2022/09/23 02:49:46;;;;;;;6.10;5.60;;;9.30;99.90;;;;;;5093733;28;20451;-61
2022/09/23 02:52:13;;;;;;;8.33;6.37;;;9.20;99.90;;;;;;5093276;28;20467;-60
2022/09/23 02:54:41;;;;;;;6.80;5.97;;;9.10;99.90;;;;;;5093373;28;20993;-60
2022/09/23 02:57:09;;;;;;;6.47;5.73;;;9.20;99.90;;;;;;5093602;28;20450;-60
2022/09/23 02:59:38;;;;;;;6.63;6.03;;;9.20;99.90;;;;;;5093523;28;20450;-60
2022/09/23 03:02:22;;;;;;;8.90;5.60;;;9.20;99.90;;;;;;5092865;28;20463;-60
2022/09/23 03:05:02;;;;;;;7.20;5.90;;;9.30;99.90;;;;;;5093463;28;20434;-60
2022/09/23 03:07:35;;;;;;;7.63;5.90;;;9.30;99.90;;;;;;5093709;28;20439;-61
2022/09/23 03:10:09;;;;;;;6.43;5.60;;;9.30;99.90;;;;;;5093707;28;20774;-61
2022/09/23 03:12:42;;;;;;;6.77;5.20;;;9.20;99.90;;;;;;5093284;28;20470;-61
2022/09/23 03:15:21;;;;;;;6.47;5.87;;;9.10;99.90;;;;;;5093420;28;20470;-60
2022/09/23 03:17:57;;;;;;;6.00;5.50;;;9.20;99.90;;;;;;5093094;28;20427;-60
2022/09/23 03:20:34;;;;;;;7.10;6.40;;;9.10;99.90;;;;;;5093319;28;20439;-61
2022/09/23 03:23:05;;;;;;;6.17;5.67;;;9.10;99.90;;;;;;5093483;28;20470;-60
2022/09/23 03:25:37;;;;;;;9.73;6.20;;;9.20;99.90;;;;;;5093285;28;20463;-60
2022/09/23 03:28:07;;;;;;;6.10;5.60;;;8.90;99.90;;;;;;5093185;28;20436;-60
2022/09/23 03:30:35;;;;;;;10.03;5.33;;;8.90;99.90;;;;;;5093297;28;20500;-61
2022/09/23 03:33:05;;;;;;;7.07;6.30;;;8.90;99.90;;;;;;5093378;28;20467;-60
2022/09/23 03:36:48;;;;;;;5.90;5.37;;;9.00;99.90;;;;;;5092932;28;20489;-60
2022/09/23 03:38:35;;;;;;;6.60;5.90;;;9.00;99.90;;;;;;5093334;28;20450;-60
2022/09/23 03:41:04;;;;;;;6.67;6.07;;;9.10;99.90;;;;;;5093061;28;20475;-60
2022/09/23 03:43:32;;;;;;;6.37;5.87;;;9.10;99.90;;;;;;5093223;28;20465;-61
2022/09/23 03:46:00;;;;;;;5.73;5.23;;;9.10;99.90;;;;;;5093226;28;20446;-61
2022/09/23 03:48:27;;;;;;;5.97;5.47;;;9.10;99.90;;;;;;5093323;28;20507;-60
2022/09/23 03:50:55;;;;;;;5.80;5.20;;;9.10;99.90;;;;;;5093158;28;20842;-60
2022/09/23 03:53:23;;;;;;;7.00;5.53;;;8.90;99.90;;;;;;5092911;28;20538;-60
2022/09/23 03:55:50;;;;;;;6.90;6.30;;;8.80;99.90;;;;;;5093536;28;20558;-60
2022/09/23 03:58:17;;;;;;;7.40;5.23;;;8.80;99.90;;;;;;5092891;28;20435;-61
2022/09/23 04:00:45;;;;;;;7.80;6.27;;;8.90;99.90;;;;;;5093079;28;20450;-60
2022/09/23 04:03:13;;;;;;;6.07;5.53;;;8.90;99.90;;;;;;5093257;28;20458;-60
2022/09/23 04:05:40;;;;;;;5.23;4.83;;;9.00;99.90;;;;;;5092707;28;20451;-60
2022/09/23 04:08:08;;;;;;;6.30;5.20;;;9.00;99.90;;;;;;5093095;28;20538;-60
2022/09/23 04:10:35;;;;;;;7.50;5.53;;;9.00;99.90;;;;;;5092694;28;20480;-60
2022/09/23 04:13:02;;;;;;;6.10;5.60;;;8.80;99.90;;;;;;5095691;28;20536;-60
2022/09/23 04:15:29;;;;;;;6.77;6.13;;;8.80;99.90;;;;;;5096495;28;20479;-60
2022/09/23 04:17:57;;;;;;;6.80;5.67;;;8.90;99.90;;;;;;5096558;28;20812;-61
2022/09/23 04:20:28;;;;;;;6.10;5.57;;;8.90;99.90;;;;;;5096435;28;20447;-59
2022/09/23 04:22:56;;;;;;;7.40;6.30;;;8.80;99.90;;;;;;5096405;28;20467;-60
2022/09/23 04:25:25;;;;;;;6.90;6.30;;;8.70;99.90;;;;;;5096186;28;20440;-60
2022/09/23 04:27:52;;;;;;;6.13;5.63;;;8.60;99.90;;;;;;5096243;28;20443;-60
2022/09/23 04:30:19;;;;;;;5.57;5.07;;;8.60;99.90;;;;;;5096040;28;20451;-61
2022/09/23 04:32:46;;;;;;;9.13;5.30;;;8.60;99.90;;;;;;5096270;28;20467;-61
2022/09/23 04:35:13;;;;;;;6.23;5.73;;;8.50;99.90;;;;;;5096181;28;20483;-60
2022/09/23 04:37:41;;;;;;;7.47;5.70;;;8.40;99.90;;;;;;5095751;28;20443;-60
2022/09/23 04:40:09;;;;;;;6.00;5.40;;;8.40;99.90;;;;;;5096299;28;20444;-60
2022/09/23 04:42:38;;;;;;;7.07;6.37;;;8.40;99.90;;;;;;5095768;28;20945;-60
2022/09/23 04:45:05;;;;;;;7.23;6.50;;;8.40;99.90;;;;;;5095996;28;20432;-60
2022/09/23 04:47:33;;;;;;;7.30;6.60;;;8.30;99.90;;;;;;5095592;28;20479;-60
2022/09/23 04:50:00;;;;;;;7.77;6.17;;;8.30;99.90;;;;;;5095596;28;20451;-60
2022/09/23 04:52:27;;;;;;;6.37;5.83;;;8.40;99.90;;;;;;5095691;28;20495;-60
2022/09/23 04:54:54;;;;;;;7.50;6.00;;;8.30;99.90;;;;;;5095686;28;20483;-60
2022/09/23 04:57:22;;;;;;;7.60;6.90;;;8.30;99.90;;;;;;5095884;28;20454;-60
2022/09/23 04:59:50;;;;;;;7.20;6.57;;;8.30;99.90;;;;;;5095160;28;20930;-60
2022/09/23 05:02:17;;;;;;;10.30;6.90;;;8.40;99.90;;;;;;5095486;28;20472;-60
2022/09/23 05:04:44;;;;;;;7.77;6.60;;;8.50;99.90;;;;;;5095363;28;20458;-60
2022/09/23 05:07:11;;;;;;;7.60;5.97;;;8.60;99.90;;;;;;5095461;28;20447;-60
2022/09/23 05:09:38;;;;;;;7.47;6.77;;;8.60;99.90;;;;;;5095177;28;20432;-60
2022/09/23 05:12:06;;;;;;;8.60;7.37;;;8.50;99.90;;;;;;5095124;28;20902;-60
2022/09/23 05:14:33;;;;;;;7.63;6.87;;;8.50;99.90;;;;;;5095454;28;20829;-60
2022/09/23 05:17:02;;;;;;;6.60;6.10;;;8.60;99.90;;;;;;5095030;28;20453;-59
2022/09/23 05:19:29;;;;;;;7.53;6.50;;;8.50;99.90;;;;;;5094916;28;20999;-61
2022/09/23 05:21:56;;;;;;;9.57;7.23;;;8.50;99.90;;;;;;5095059;28;20493;-61
2022/09/23 05:24:23;;;;;;;7.60;6.83;;;8.60;99.90;;;;;;5094516;28;20450;-60
2022/09/23 05:26:53;;;;;;;8.40;7.33;;;8.50;99.90;;;;;;5094898;28;20784;-60
2022/09/23 05:29:20;;;;;;;14.20;7.50;;;8.60;99.90;;;;;;5095002;28;20448;-61
2022/09/23 05:31:47;;;;;;;8.80;8.00;;;8.70;99.90;;;;;;5094584;28;20460;-60
2022/09/23 05:34:17;;;;;;;7.50;6.80;;;8.50;99.90;;;;;;5094888;28;20446;-60
2022/09/23 05:36:44;;;;;;;6.60;6.00;;;8.60;99.90;;;;;;5094872;28;20490;-61
2022/09/23 05:39:11;;;;;;;8.60;6.30;;;8.70;99.90;;;;;;5094518;28;20479;-61
2022/09/23 05:41:39;;;;;;;8.03;7.33;;;8.70;99.90;;;;;;5094536;28;20489;-60
2022/09/23 05:44:06;;;;;;;7.50;6.80;;;8.80;99.90;;;;;;5094576;28;21231;-60
2022/09/23 05:46:33;;;;;;;7.33;6.57;;;8.90;99.90;;;;;;5094311;28;20478;-60
2022/09/23 05:49:02;;;;;;;9.10;6.67;;;8.90;99.90;;;;;;5094164;28;21009;-60
2022/09/23 05:51:34;;;;;;;7.57;6.90;;;8.90;99.90;;;;;;5094377;28;20478;-61
2022/09/23 05:54:02;;;;;;;8.63;6.73;;;9.00;99.90;;;;;;5094401;28;20424;-60
2022/09/23 05:56:30;;;;;;;6.80;6.20;;;9.10;99.90;;;;;;5094289;28;20819;-61
2022/09/23 05:58:59;;;;;;;9.00;6.93;;;9.10;99.90;;;;;;5094468;28;20450;-60
2022/09/23 06:01:30;;;;;;;8.30;7.50;;;9.20;99.90;;;;;;5094364;28;20499;-60
2022/09/23 06:03:58;;;;;;;8.00;7.33;;;9.20;99.90;;;;;;5094234;28;20874;-61
2022/09/23 06:06:28;;;;;;;8.43;7.63;;;9.20;99.90;;;;;;5093938;28;20444;-61
2022/09/23 06:08:58;;;;;;;8.53;7.70;;;9.30;99.90;;;;;;5094164;28;20475;-61
2022/09/23 06:11:27;;;;;;;7.33;6.53;;;9.40;99.90;;;;;;5093830;28;20879;-61
2022/09/23 06:13:55;;;;;;;7.20;6.50;;;9.40;99.90;;;;;;5093967;28;20948;-61
2022/09/23 06:16:22;;;;;;;11.53;8.60;;;9.50;99.90;;;;;;5094099;28;20483;-61
2022/09/23 06:18:50;;;;;;;9.53;8.53;;;9.60;99.90;;;;;;5093941;28;20443;-60
2022/09/23 06:21:18;;;;;;;7.93;7.23;;;9.60;99.90;;;;;;5093488;28;20547;-61
2022/09/23 06:23:46;;;;;;;12.60;7.53;;;9.60;99.90;;;;;;5093687;28;20482;-61
2022/09/23 06:26:16;;;;;;;9.50;7.40;;;9.70;99.90;;;;;;5093861;28;20927;-61
2022/09/23 06:28:44;;;;;;;7.67;6.90;;;9.80;99.90;;;;;;5093992;28;20450;-61
2022/09/23 06:31:14;;;;;;;8.20;6.83;;;9.80;99.90;;;;;;5093611;28;20477;-60
2022/09/23 06:33:42;;;;;;;8.13;7.43;;;9.90;99.90;;;;;;5093434;28;20451;-60
2022/09/23 06:36:10;;;;;;;8.30;7.50;;;10.00;99.90;;;;;;5092327;28;20899;-61
2022/09/23 06:38:39;;;;;;;8.47;7.67;;;10.00;99.90;;;;;;5093782;28;20549;-61
2022/09/23 06:41:07;;;;;;;12.13;7.00;;;10.10;99.90;;;;;;5093333;28;20484;-61
2022/09/23 06:43:35;;;;;;;20.03;8.23;;;10.20;99.90;;;;;;5093242;28;20458;-61
2022/09/23 06:46:04;;;;;;;7.20;6.60;;;10.20;99.90;;;;;;5093094;28;20817;-60
2022/09/23 06:48:34;;;;;;;11.63;7.53;;;10.30;99.90;;;;;;5093069;28;20431;-62
2022/09/23 06:51:03;;;;;;;9.83;8.40;;;10.30;99.90;;;;;;5093411;28;20809;-61
2022/09/23 06:53:32;;;;;;;10.23;7.93;;;10.30;99.90;;;;;;5093106;28;20929;-61
2022/09/23 06:56:00;;;;;;;11.97;8.53;;;10.30;99.90;;;;;;5093532;28;20570;-61
2022/09/23 06:58:27;;;;;;;11.23;7.20;;;10.40;99.90;;;;;;5093241;28;20952;-61
2022/09/23 07:01:01;;;;;;;14.37;7.83;;;10.50;99.90;;;;;;5093122;28;20487;-60
2022/09/23 07:03:29;;;;;;;8.23;7.10;;;10.50;99.90;;;;;;5092923;28;20428;-61
2022/09/23 07:05:57;;;;;;;8.67;7.80;;;10.50;99.90;;;;;;5093304;28;20492;-61
2022/09/23 07:08:25;;;;;;;8.20;7.10;;;10.70;99.90;;;;;;5093435;28;20790;-61
2022/09/23 07:10:53;;;;;;;10.50;7.70;;;10.80;99.90;;;;;;5093158;28;20481;-61
2022/09/23 07:13:20;;;;;;;9.30;7.30;;;10.80;99.90;;;;;;5092985;28;20555;-60
2022/09/23 07:15:50;;;;;;;9.07;7.97;;;10.90;99.90;;;;;;5093054;28;20581;-61
2022/09/23 07:18:22;;;;;;;8.33;7.20;;;11.00;99.90;;;;;;5093384;28;20504;-60
2022/09/23 07:20:49;;;;;;;8.00;7.20;;;11.20;99.90;;;;;;5092977;28;20522;-61
2022/09/23 07:23:20;;;;;;;8.93;7.90;;;11.30;99.90;;;;;;5093137;28;20538;-63
2022/09/23 07:25:49;;;;;;;7.20;6.60;;;11.50;99.90;;;;;;5092887;28;20925;-60
2022/09/23 07:28:16;;;;;;;9.20;7.70;;;11.60;99.90;;;;;;5093328;28;20452;-60
2022/09/23 07:30:44;;;;;;;7.37;6.77;;;11.70;99.90;;;;;;5092975;28;20545;-60
2022/09/23 07:33:11;;;;;;;6.90;6.20;;;11.90;99.90;;;;;;5093137;28;20499;-60
2022/09/23 07:35:42;;;;;;;7.10;6.40;;;12.00;99.90;;;;;;5092678;28;20552;-60
2022/09/23 07:38:10;;;;;;;7.10;6.50;;;12.20;99.90;;;;;;5093010;28;20431;-60
2022/09/23 07:40:39;;;;;;;7.40;6.70;;;12.40;99.90;;;;;;5092669;28;20806;-60
2022/09/23 07:43:07;;;;;;;8.67;6.53;;;12.50;99.90;;;;;;5092668;28;20486;-61
2022/09/23 07:45:34;;;;;;;11.23;6.20;;;12.70;99.90;;;;;;5092538;28;20455;-60
2022/09/23 07:48:02;;;;;;;9.53;6.10;;;12.60;99.90;;;;;;5095416;28;20475;-61
2022/09/23 07:50:31;;;;;;;6.83;6.23;;;12.70;99.90;;;;;;5096506;28;20444;-60
2022/09/23 07:53:01;;;;;;;10.83;7.00;;;12.80;99.90;;;;;;5096770;28;20547;-60
2022/09/23 07:55:29;;;;;;;12.67;6.17;;;12.80;99.90;;;;;;5096637;28;20488;-61
2022/09/23 07:57:56;;;;;;;6.67;6.07;;;12.90;99.90;;;;;;5096657;28;20431;-60
2022/09/23 08:00:23;;;;;;;9.23;6.60;;;13.00;99.90;;;;;;5096717;28;20469;-61
2022/09/23 08:02:51;;;;;;;9.13;6.70;;;13.10;99.90;;;;;;5096404;28;20459;-61
2022/09/23 08:05:18;;;;;;;7.57;6.77;;;13.10;99.90;;;;;;5096964;28;20450;-61
2022/09/23 08:07:45;;;;;;;9.30;7.60;;;13.30;99.90;;;;;;5096821;28;20823;-61
2022/09/23 08:10:17;;;;;;;7.80;6.83;;;13.20;99.90;;;;;;5096327;28;20447;-61
2022/09/23 08:12:45;;;;;;;8.97;6.97;;;13.10;99.90;;;;;;5096485;28;20506;-60
2022/09/23 08:15:12;;;;;;;8.70;6.10;;;13.20;99.90;;;;;;5096561;28;20439;-60
2022/09/23 08:17:39;;;;;;;8.40;6.10;;;13.40;99.90;;;;;;5096077;28;20443;-60
2022/09/23 08:20:42;;;;;;;8.30;7.47;;;13.30;99.90;;;;;;5096196;28;20960;-60
2022/09/23 08:22:55;;;;;;;8.00;7.30;;;13.40;99.90;;;;;;5096127;28;20455;-60
2022/09/23 08:25:24;;;;;;;6.97;6.37;;;13.70;99.90;;;;;;5096488;28;20820;-61
2022/09/23 08:27:51;;;;;;;10.40;6.87;;;13.70;99.90;;;;;;5095915;28;20447;-61
2022/09/23 08:30:18;;;;;;;7.33;5.83;;;13.70;99.90;;;;;;5096165;28;20443;-61
2022/09/23 08:32:45;;;;;;;7.53;6.83;;;13.90;99.90;;;;;;5095855;28;20585;-61
2022/09/23 08:35:13;;;;;;;6.77;6.00;;;14.00;99.90;;;;;;5096162;28;20813;-61
2022/09/23 08:37:40;;;;;;;7.97;6.20;;;14.00;99.90;;;;;;5095969;28;20574;-61
2022/09/23 08:40:08;;;;;;;9.40;6.37;;;14.10;99.90;;;;;;5095869;28;20542;-62
2022/09/23 08:42:41;;;;;;;7.67;5.50;;;14.20;99.90;;;;;;5095814;28;20471;-61
2022/09/23 08:45:15;;;;;;;7.60;6.17;;;14.40;99.90;;;;;;5096044;28;20523;-61
2022/09/23 08:47:47;;;;;;;9.20;6.70;;;14.50;99.90;;;;;;5095369;28;20471;-61
2022/09/23 08:50:19;;;;;;;8.60;6.03;;;14.50;99.90;;;;;;5095992;28;20526;-61
2022/09/23 08:52:50;;;;;;;5.90;5.03;;;14.60;99.90;;;;;;5095679;28;20817;-61
2022/09/23 08:55:18;;;;;;;7.57;6.77;;;14.80;99.90;;;;;;5095310;28;20838;-61
2022/09/23 08:58:01;;;;;;;6.40;5.87;;;14.90;99.90;;;;;;5094980;28;20483;-61
2022/09/23 09:00:36;;;;;;;8.07;5.90;;;15.00;99.90;;;;;;5095545;28;20431;-60
2022/09/23 09:03:15;;;;;;;6.60;5.73;;;14.90;99.90;;;;;;5095453;28;20872;-61
2022/09/23 09:05:43;;;;;;;7.80;5.70;;;15.00;99.90;;;;;;5095370;28;20431;-60
2022/09/23 09:08:12;;;;;;;6.30;5.67;;;15.20;99.90;;;;;;5095531;28;20479;-61
2022/09/23 09:10:46;;;;;;;7.40;6.23;;;15.40;99.90;;;;;;5095296;28;20443;-61
2022/09/23 09:13:25;;;;;;;9.43;5.93;;;15.50;99.90;;;;;;5095378;28;21008;-61
2022/09/23 09:16:10;;;;;;;13.97;6.83;;;15.40;99.90;;;;;;5095449;28;20886;-61
2022/09/23 09:18:42;;;;;;;14.50;6.63;;;15.40;99.90;;;;;;5095229;28;20489;-61
2022/09/23 09:21:13;;;;;;;10.70;6.00;;;15.90;99.90;;;;;;5094900;28;20566;-60
2022/09/23 09:23:45;;;;;;;8.00;5.53;;;16.40;99.90;;;;;;5095161;28;20518;-61
2022/09/23 09:26:21;;;;;;;10.03;5.27;;;16.90;99.90;;;;;;5094913;28;20891;-61
2022/09/23 09:28:55;;;;;;;6.90;4.93;;;17.40;99.90;;;;;;5095210;28;20787;-62
2022/09/23 09:31:30;;;;;;;7.80;4.53;;;17.70;99.90;;;;;;5094869;28;20817;-62
2022/09/23 09:34:05;;;;;;;8.47;5.37;;;17.90;99.90;;;;;;5094752;28;20423;-61
2022/09/23 09:36:42;;;;;;;6.00;5.10;;;18.20;99.90;;;;;;5094490;28;20960;-61
2022/09/23 09:39:12;;;;;;;4.80;4.33;;;18.40;99.90;;;;;;5094511;28;20518;-61
2022/09/23 09:41:45;;;;;;;5.37;4.83;;;18.70;99.90;;;;;;5094970;28;20475;-61
2022/09/23 09:44:25;;;;;;;6.03;4.97;;;18.70;99.70;;;;;;5095068;28;20848;-61
2022/09/23 09:47:06;;;;;;;8.97;4.53;;;19.10;99.90;;;;;;5094049;28;20506;-61
2022/09/23 09:49:42;;;;;;;4.53;4.13;;;19.40;99.70;;;;;;5094388;28;20423;-61
2022/09/23 09:52:22;;;;;;;5.17;4.73;;;19.60;98.90;;;;;;5094151;28;20550;-61
2022/09/23 09:54:50;;;;;;;7.97;4.10;;;20.10;99.50;;;;;;5094579;28;20426;-62
2022/09/23 09:57:39;;;;;;;6.20;4.60;;;20.30;97.60;;;;;;5094508;28;20566;-62
2022/09/23 10:00:35;;;;;;;6.40;4.83;;;21.00;97.70;;;;;;5088506;28;20491;-62
2022/09/23 10:03:14;;;;;;;4.43;4.03;;;21.00;97.50;;;;;;5094281;28;20467;-62
2022/09/23 10:05:49;;;;;;;4.80;4.30;;;21.20;96.80;;;;;;5094407;28;20523;-62
2022/09/23 10:08:27;;;;;;;6.17;4.23;;;21.80;93.90;;;;;;5094399;28;20900;-62
2022/09/23 10:11:02;;;;;;;5.10;4.60;;;21.70;94.40;;;;;;5094292;28;20447;-63
2022/09/23 10:13:30;;;;;;;5.00;4.07;;;22.70;93.90;;;;;;5094227;28;20442;-63
2022/09/23 10:16:00;;;;;;;4.77;4.37;;;23.00;94.80;;;;;;5093999;28;20443;-63
2022/09/23 10:18:31;;;;;;;4.53;4.13;;;22.80;93.30;;;;;;5094187;28;20840;-63
2022/09/23 10:21:08;;;;;;;4.70;4.03;;;22.70;94.20;;;;;;5093880;28;20447;-63
2022/09/23 10:23:40;;;;;;;5.17;4.17;;;22.70;93.80;;;;;;5093843;28;20427;-64
2022/09/23 10:26:09;;;;;;;6.00;4.13;;;22.60;93.30;;;;;;5093863;28;20432;-63
2022/09/23 10:28:47;;;;;;;4.13;3.60;;;22.90;92.30;;;;;;5093984;28;20457;-64
2022/09/23 10:31:17;;;;;;;5.00;3.80;;;23.30;91.80;;;;;;5093812;28;20973;-62
2022/09/23 10:33:49;;;;;;;4.37;3.97;;;23.70;92.50;;;;;;5094346;28;20439;-61
2022/09/23 10:36:17;;;;;;;4.40;4.00;;;23.30;91.30;;;;;;5093462;28;20468;-65
2022/09/23 10:38:47;;;;;;;4.93;3.80;;;23.90;92.20;;;;;;5093814;28;20443;-65
2022/09/23 10:47:32;;;;;;;6.70;3.83;;;22.70;90.60;;;;;;5092040;28;20510;-65
2022/09/23 10:50:17;;;;;;;6.63;3.83;;;22.30;92.90;;;;;;5093827;28;20438;-65
2022/09/23 10:52:57;;;;;;;5.40;3.63;;;22.10;90.70;;;;;;5093569;28;20528;-65
2022/09/23 10:55:39;;;;;;;4.57;4.17;;;21.30;92.60;;;;;;5093512;28;20503;-64
2022/09/23 10:58:20;;;;;;;5.60;3.80;;;23.00;92.50;;;;;;5092996;28;20471;-65
2022/09/23 11:00:58;;;;;;;4.30;3.90;;;24.10;89.20;;;;;;5093102;28;20431;-65
2022/09/23 11:03:58;;;;;;;7.10;3.97;;;24.20;86.70;;;;;;5093343;28;20458;-65
2022/09/23 11:06:36;;;;;;;4.10;3.70;;;24.20;90.20;;;;;;5093454;28;20451;-66
2022/09/23 11:09:18;;;;;;;6.03;3.73;;;24.80;90.40;;;;;;5093390;28;20446;-65
2022/09/23 11:12:00;;;;;;;3.73;3.40;;;24.90;86.90;;;;;;5092982;28;20550;-65
2022/09/23 11:15:01;;;;;;;5.80;3.93;;;24.70;86.50;;;;;;5093155;28;20546;-65
2022/09/23 11:17:48;;;;;;;7.63;4.90;;;23.90;86.70;;;;;;5087457;28;20551;-65
2022/09/23 11:20:33;;;;;;;4.33;3.60;;;22.80;88.40;;;;;;5090548;28;20713;-65
2022/09/23 11:23:32;;;;;;;4.77;4.37;;;22.80;89.00;;;;;;5095337;28;20471;-65
2022/09/23 11:26:08;;;;;;;3.67;3.30;;;22.80;90.50;;;;;;5094118;28;20570;-65
2022/09/23 11:29:20;;;;;;;7.23;4.80;;;23.30;88.10;;;;;;5094319;28;20431;-65
2022/09/23 11:31:59;;;;;;;7.17;4.57;;;23.50;89.10;;;;;;5092852;28;20490;-66
2022/09/23 11:34:48;;;;;;;8.80;4.93;;;23.40;88.10;;;;;;5095014;28;20412;-66
2022/09/23 11:37:22;;;;;;;5.73;4.20;;;23.70;87.10;;;;;;5095437;28;20459;-66
2022/09/23 11:39:53;;;;;;;4.47;3.90;;;22.40;84.90;;;;;;5100322;28;20443;-64
2022/09/23 11:42:25;;;;;;;4.40;3.10;;;22.40;87.80;;;;;;5111039;28;20488;-65
2022/09/23 11:44:58;;;;;;;4.40;3.93;;;24.10;87.90;;;;;;5107937;28;20454;-59
2022/09/23 11:47:30;;;;;;;6.53;3.50;;;24.40;83.90;;;;;;5110398;28;20478;-58
2022/09/23 11:50:02;;;;;;;4.90;3.17;;;24.70;86.20;;;;;;5110543;28;20431;-59
2022/09/23 11:52:34;;;;;;;4.63;4.23;;;24.30;83.20;;;;;;5112117;28;20526;-58
2022/09/23 11:55:06;;;;;;;5.53;4.13;;;23.90;84.30;;;;;;5111273;28;20517;-57
2022/09/23 11:57:38;;;;;;;4.73;4.30;;;24.00;83.60;;;;;;5106635;28;21054;-59
2022/09/23 12:00:14;;;;;;;5.43;4.00;;;23.60;85.60;;;;;;5103812;28;20439;-56
2022/09/23 12:02:54;;;;;;;4.73;3.73;;;23.90;83.00;;;;;;5098969;28;20473;-58
2022/09/23 12:05:26;;;;;;;4.00;3.67;;;23.90;86.80;;;;;;5099047;28;20451;-61
2022/09/23 12:08:00;;;;;;;4.37;3.37;;;24.00;85.10;;;;;;5095321;28;20450;-62
2022/09/23 12:10:41;;;;;;;4.33;3.43;;;24.80;84.10;;;;;;5098241;28;20925;-57
2022/09/23 12:13:16;;;;;;;6.07;4.80;;;24.40;81.90;;;;;;5101063;28;20474;-56
2022/09/23 12:15:58;;;;;;;5.10;4.60;;;23.80;82.60;;;;;;5102238;28;20522;-56
2022/09/23 12:18:48;;;;;;;3.60;3.27;;;24.10;86.20;;;;;;5101609;28;20466;-56
2022/09/23 12:21:38;;;;;;;7.83;4.20;;;24.70;83.20;;;;;;5094143;28;20497;-57
2022/09/23 12:24:47;;;;;;;7.90;5.40;;;23.30;83.50;;;;;;5096631;27;20446;-58
2022/09/23 12:27:23;;;;;;;5.30;4.60;;;23.60;84.50;;;;;;5010841;28;20450;-58
2022/09/23 12:29:58;;;;;;;4.03;3.63;;;23.10;83.00;;;;;;5079639;28;20511;-60
2022/09/23 12:32:26;;;;;;;4.50;3.20;;;23.00;85.80;;;;;;5101651;28;20484;-61
2022/09/23 12:34:54;;;;;;;5.70;5.10;;;24.10;89.10;;;;;;5096556;28;20452;-59
2022/09/23 12:37:26;;;;;;;5.87;4.80;;;24.20;82.60;;;;;;5097914;28;20479;-57
2022/09/23 12:39:59;;;;;;;9.53;3.67;;;23.50;83.10;;;;;;5102520;28;20454;-64
2022/09/23 12:42:26;;;;;;;8.77;4.90;;;24.20;87.10;;;;;;5098530;28;20483;-61
2022/09/23 12:45:19;;;;;;;3.40;2.90;;;24.60;85.20;;;;;;5097876;28;20455;-63
2022/09/23 12:47:46;;;;;;;3.50;3.20;;;24.70;86.00;;;;;;5108082;28;20538;-57
2022/09/23 12:50:49;;;;;;;3.77;3.47;;;24.30;85.40;;;;;;5098621;28;21123;-57
2022/09/23 12:53:54;;;;;;;4.67;4.17;;;23.90;86.70;;;;;;5093907;28;20888;-62
2022/09/23 12:56:25;;;;;;;4.57;4.17;;;23.30;83.70;;;;;;5105388;28;20442;-58
2022/09/23 12:59:25;;;;;;;5.53;4.37;;;22.80;84.00;;;;;;5094070;27;20484;-60
2022/09/23 13:01:53;;;;;;;8.03;3.67;;;22.30;83.50;;;;;;5097082;28;20477;-63
2022/09/23 13:07:32;;;;;;;5.20;4.70;;;22.10;86.60;;;;;;5096788;28;20459;-56
2022/09/23 13:10:08;;;;;;;6.37;5.80;;;21.80;89.90;;;;;;5103605;28;20450;-58
2022/09/23 13:12:41;;;;;;;4.57;4.10;;;21.90;86.40;;;;;;5097783;28;20804;-65
2022/09/23 13:15:25;;;;;;;9.73;5.80;;;22.40;90.20;;;;;;5096739;28;20470;-61
2022/09/23 13:17:52;;;;;;;11.37;5.30;;;22.70;87.20;;;;;;5100649;28;20490;-59
2022/09/23 13:20:39;;;;;;;5.13;3.60;;;22.50;87.40;;;;;;5105301;28;20458;-59
2022/09/23 13:23:20;;;;;;;11.20;5.70;;;22.40;90.50;;;;;;5100989;28;20470;-57
2022/09/23 13:25:50;;;;;;;8.13;5.23;;;22.00;88.50;;;;;;5096651;28;20937;-56
2022/09/23 13:28:31;;;;;;;13.03;4.80;;;21.70;89.30;;;;;;5097592;28;20451;-59